createdAt,value
2018-10-06T00:01:24.387Z,8.07
2018-10-06T00:03:53.406Z,7.78
2018-10-06T00:06:22.533Z,7.88
2018-10-06T00:08:51.505Z,7.72
2018-10-06T00:11:20.552Z,7.82
2018-10-06T00:13:49.494Z,7.86
2018-10-06T00:16:18.512Z,7.64
2018-10-06T00:18:47.809Z,7.67
2018-10-06T00:21:16.817Z,7.70
2018-10-06T00:23:45.936Z,7.67
2018-10-06T00:26:14.957Z,7.38
2018-10-06T00:28:43.921Z,7.54
2018-10-06T00:31:13.598Z,7.48
2018-10-06T00:33:42.675Z,7.27
2018-10-06T00:36:11.688Z,7.40
2018-10-06T00:38:40.711Z,7.46
2018-10-06T00:41:09.691Z,7.38
2018-10-06T00:43:38.705Z,7.22
2018-10-06T00:46:07.797Z,7.35
2018-10-06T00:48:36.763Z,7.34
2018-10-06T00:51:05.896Z,7.25
2018-10-06T00:53:34.973Z,7.19
2018-10-06T00:56:04.023Z,7.20
2018-10-06T00:58:33.007Z,7.29
2018-10-06T01:01:02.093Z,7.19
2018-10-06T01:03:31.101Z,7.14
2018-10-06T01:06:00.141Z,7.18
2018-10-06T01:08:29.163Z,6.95
2018-10-06T01:10:58.197Z,7.06
2018-10-06T01:13:27.262Z,7.17
2018-10-06T01:15:56.200Z,7.05
2018-10-06T01:18:25.221Z,7.04
2018-10-06T01:20:54.259Z,6.97
2018-10-06T01:23:23.283Z,6.78
2018-10-06T01:25:52.545Z,6.85
2018-10-06T01:28:21.529Z,6.77
2018-10-06T01:30:50.594Z,6.77
2018-10-06T01:33:20.009Z,6.84
2018-10-06T01:35:49.477Z,7.05
2018-10-06T01:38:19.710Z,7.12
2018-10-06T01:40:48.996Z,6.91
2018-10-06T01:43:18.391Z,6.86
2018-10-06T01:45:48.544Z,6.95
2018-10-06T01:48:17.522Z,7.08
2018-10-06T01:50:46.592Z,7.13
2018-10-06T01:53:15.902Z,7.24
2018-10-06T01:55:45.136Z,6.97
2018-10-06T01:58:14.309Z,7.13
2018-10-06T02:00:43.349Z,7.23
2018-10-06T02:03:12.294Z,7.28
2018-10-06T02:05:41.327Z,7.34
2018-10-06T02:08:10.349Z,7.40
2018-10-06T02:10:39.387Z,7.35
2018-10-06T02:13:08.496Z,7.22
2018-10-06T02:15:37.520Z,7.01
2018-10-06T02:18:06.487Z,6.99
2018-10-06T02:20:35.544Z,7.10
2018-10-06T02:23:04.657Z,7.09
2018-10-06T02:25:33.682Z,7.15
2018-10-06T02:28:02.715Z,7.13
2018-10-06T02:30:31.810Z,6.97
2018-10-06T02:33:00.870Z,7.00
2018-10-06T02:35:29.938Z,7.12
2018-10-06T02:37:58.913Z,6.93
2018-10-06T02:40:28.504Z,7.00
2018-10-06T02:42:57.457Z,7.06
2018-10-06T02:45:26.526Z,6.80
2018-10-06T02:47:55.482Z,6.78
2018-10-06T02:50:24.509Z,6.74
2018-10-06T02:52:53.602Z,6.84
2018-10-06T02:55:22.573Z,6.82
2018-10-06T02:57:51.670Z,6.90
2018-10-06T03:00:20.918Z,6.97
2018-10-06T03:02:49.983Z,6.99
2018-10-06T03:05:19.036Z,6.93
2018-10-06T03:07:48.028Z,6.94
2018-10-06T03:10:17.076Z,6.59
2018-10-06T03:12:46.052Z,6.69
2018-10-06T03:15:16.109Z,6.76
2018-10-06T03:17:45.163Z,6.75
2018-10-06T03:20:14.141Z,6.71
2018-10-06T03:22:43.130Z,6.79
2018-10-06T03:25:12.180Z,6.80
2018-10-06T03:27:41.142Z,6.78
2018-10-06T03:30:10.359Z,6.66
2018-10-06T03:32:40.754Z,6.65
2018-10-06T03:35:10.263Z,6.63
2018-10-06T03:37:39.226Z,6.53
2018-10-06T03:40:08.379Z,6.48
2018-10-06T03:42:37.341Z,6.50
2018-10-06T03:45:06.486Z,6.50
2018-10-06T03:47:35.556Z,6.53
2018-10-06T03:50:04.787Z,6.38
2018-10-06T03:52:33.851Z,6.27
2018-10-06T03:55:02.889Z,6.38
2018-10-06T03:57:31.925Z,6.48
2018-10-06T04:00:01.023Z,6.44
2018-10-06T04:02:30.052Z,6.43
2018-10-06T04:04:59.029Z,6.40
2018-10-06T04:07:28.068Z,6.32
2018-10-06T04:09:57.045Z,6.30
2018-10-06T04:12:26.103Z,6.34
2018-10-06T04:14:55.113Z,6.42
2018-10-06T04:17:24.220Z,6.42
2018-10-06T04:19:53.210Z,6.43
2018-10-06T04:22:22.990Z,6.40
2018-10-06T04:24:51.948Z,6.41
2018-10-06T04:27:20.971Z,6.39
2018-10-06T04:29:50.322Z,6.38
2018-10-06T04:32:19.323Z,6.38
2018-10-06T04:34:48.338Z,6.42
2018-10-06T04:37:17.341Z,6.47
2018-10-06T04:39:46.381Z,6.44
2018-10-06T04:42:15.495Z,6.46
2018-10-06T04:44:44.501Z,6.38
2018-10-06T04:47:13.565Z,6.21
2018-10-06T04:49:42.561Z,6.19
2018-10-06T04:52:11.617Z,6.11
2018-10-06T04:54:40.618Z,6.17
2018-10-06T04:57:09.723Z,6.28
2018-10-06T04:59:38.829Z,6.31
2018-10-06T05:02:07.806Z,6.32
2018-10-06T05:04:36.873Z,6.33
2018-10-06T05:07:06.142Z,6.39
2018-10-06T05:09:35.135Z,6.41
2018-10-06T05:12:10.555Z,6.42
2018-10-06T05:14:39.643Z,6.37
2018-10-06T05:17:08.667Z,6.38
2018-10-06T05:19:38.303Z,6.47
2018-10-06T05:22:07.307Z,6.45
2018-10-06T05:24:36.353Z,6.29
2018-10-06T05:27:05.357Z,6.16
2018-10-06T05:29:34.417Z,6.06
2018-10-06T05:32:03.446Z,6.28
2018-10-06T05:34:32.543Z,6.40
2018-10-06T05:37:01.723Z,6.46
2018-10-06T05:39:30.733Z,6.35
2018-10-06T05:41:59.801Z,6.34
2018-10-06T05:44:28.805Z,6.50
2018-10-06T05:46:57.877Z,6.57
2018-10-06T05:49:26.869Z,6.67
2018-10-06T05:51:56.096Z,6.80
2018-10-06T05:54:25.160Z,7.19
2018-10-06T05:56:54.253Z,6.99
2018-10-06T05:59:23.296Z,6.78
2018-10-06T06:01:52.332Z,6.82
2018-10-06T06:04:21.638Z,7.18
2018-10-06T06:06:50.799Z,7.30
2018-10-06T06:09:19.983Z,7.43
2018-10-06T06:11:49.152Z,7.54
2018-10-06T06:14:18.278Z,7.57
2018-10-06T06:16:47.313Z,7.70
2018-10-06T06:19:16.409Z,7.95
2018-10-06T06:21:45.548Z,8.23
2018-10-06T06:24:14.667Z,8.50
2018-10-06T06:26:43.657Z,8.71
2018-10-06T06:29:12.723Z,8.81
2018-10-06T06:31:42.702Z,8.98
2018-10-06T06:34:11.968Z,9.14
2018-10-06T06:36:41.114Z,9.25
2018-10-06T06:39:10.690Z,9.11
2018-10-06T06:41:40.464Z,8.87
2018-10-06T06:44:09.531Z,9.26
2018-10-06T06:46:38.561Z,9.57
2018-10-06T06:49:07.742Z,9.52
2018-10-06T06:51:37.123Z,9.47
2018-10-06T06:54:06.527Z,9.94
2018-10-06T06:56:35.857Z,10.42
2018-10-06T06:59:05.490Z,10.70
2018-10-06T07:01:34.926Z,10.92
2018-10-06T07:04:04.247Z,11.10
2018-10-06T07:06:33.537Z,11.40
2018-10-06T07:09:02.953Z,11.67
2018-10-06T07:11:32.493Z,11.71
2018-10-06T07:14:01.639Z,11.60
2018-10-06T07:16:30.757Z,11.65
2018-10-06T07:19:00.872Z,11.70
2018-10-06T07:21:30.015Z,11.62
2018-10-06T07:23:59.172Z,11.81
2018-10-06T07:26:28.221Z,11.92
2018-10-06T07:28:57.383Z,12.12
2018-10-06T07:31:27.478Z,12.80
2018-10-06T07:33:56.604Z,12.90
2018-10-06T07:36:25.769Z,13.43
2018-10-06T07:38:56.045Z,13.92
2018-10-06T07:41:25.143Z,13.92
2018-10-06T07:43:54.233Z,13.79
2018-10-06T07:46:23.434Z,14.02
2018-10-06T07:48:52.604Z,14.23
2018-10-06T07:51:22.530Z,13.79
2018-10-06T07:53:51.745Z,13.40
2018-10-06T07:56:20.945Z,14.13
2018-10-06T07:58:50.176Z,13.99
2018-10-06T08:01:19.220Z,13.95
2018-10-06T08:03:48.240Z,14.50
2018-10-06T08:06:17.304Z,14.94
2018-10-06T08:08:46.422Z,15.40
2018-10-06T08:11:15.401Z,15.49
2018-10-06T08:13:44.556Z,15.36
2018-10-06T08:16:13.535Z,15.50
2018-10-06T08:18:43.384Z,15.90
2018-10-06T08:21:12.482Z,16.05
2018-10-06T08:23:41.632Z,16.19
2018-10-06T08:26:10.778Z,16.19
2018-10-06T08:28:40.036Z,16.88
2018-10-06T08:31:09.584Z,17.14
2018-10-06T08:33:38.628Z,17.30
2018-10-06T08:36:07.636Z,17.12
2018-10-06T08:38:37.032Z,17.81
2018-10-06T08:41:06.175Z,17.91
2018-10-06T08:43:35.188Z,18.23
2018-10-06T08:46:04.368Z,17.76
2018-10-06T08:48:33.485Z,17.51
2018-10-06T08:51:02.564Z,17.58
2018-10-06T08:53:31.581Z,17.98
2018-10-06T08:56:07.089Z,18.14
2018-10-06T08:58:36.099Z,18.47
2018-10-06T09:01:05.167Z,18.39
2018-10-06T09:03:34.210Z,17.56
2018-10-06T09:06:03.327Z,18.41
2018-10-06T09:08:32.965Z,18.60
2018-10-06T09:11:02.121Z,19.02
2018-10-06T09:13:31.277Z,18.83
2018-10-06T09:16:01.172Z,19.29
2018-10-06T09:18:30.269Z,19.67
2018-10-06T09:20:59.515Z,19.69
2018-10-06T09:23:28.571Z,20.08
2018-10-06T09:25:57.673Z,20.50
2018-10-06T09:28:26.866Z,20.16
2018-10-06T09:30:55.853Z,19.60
2018-10-06T09:33:24.945Z,20.87
2018-10-06T09:35:53.928Z,21.32
2018-10-06T09:38:23.215Z,20.69
2018-10-06T09:40:52.408Z,20.66
2018-10-06T09:43:22.312Z,20.06
2018-10-06T09:45:51.932Z,20.07
2018-10-06T09:48:21.067Z,20.89
2018-10-06T09:50:50.103Z,21.05
2018-10-06T09:53:19.126Z,21.65
2018-10-06T09:55:49.436Z,22.01
2018-10-06T09:58:18.472Z,21.92
2018-10-06T10:00:52.473Z,21.60
2018-10-06T10:03:26.976Z,21.29
2018-10-06T10:05:56.506Z,21.38
2018-10-06T10:08:25.695Z,22.22
2018-10-06T10:10:54.823Z,21.24
2018-10-06T10:13:23.906Z,21.52
2018-10-06T10:15:53.068Z,21.47
2018-10-06T10:18:22.334Z,21.73
2018-10-06T10:20:51.344Z,20.92
2018-10-06T10:23:20.567Z,21.00
2018-10-06T10:25:49.588Z,21.07
2018-10-06T10:28:18.716Z,20.83
2018-10-06T10:30:47.840Z,21.78
2018-10-06T10:33:16.870Z,22.12
2018-10-06T10:35:45.874Z,22.57
2018-10-06T10:38:14.960Z,21.29
2018-10-06T10:40:44.055Z,21.87
2018-10-06T10:43:13.130Z,22.35
2018-10-06T10:45:42.198Z,22.58
2018-10-06T10:48:11.209Z,22.90
2018-10-06T10:50:40.390Z,23.17
2018-10-06T10:53:09.414Z,22.83
2018-10-06T10:55:38.548Z,22.74
2018-10-06T10:58:07.670Z,22.89
2018-10-06T11:00:36.746Z,23.51
2018-10-06T11:03:05.836Z,23.70
2018-10-06T11:05:34.966Z,23.37
2018-10-06T11:08:04.007Z,23.27
2018-10-06T11:10:33.004Z,23.05
2018-10-06T11:13:02.051Z,22.68
2018-10-06T11:15:31.115Z,22.50
2018-10-06T11:18:00.236Z,22.36
2018-10-06T11:20:29.297Z,22.40
2018-10-06T11:22:58.409Z,22.87
2018-10-06T11:25:27.509Z,23.05
2018-10-06T11:27:56.715Z,23.35
2018-10-06T11:30:25.778Z,22.78
2018-10-06T11:32:54.875Z,23.01
2018-10-06T11:35:23.869Z,23.28
2018-10-06T11:37:53.039Z,23.47
2018-10-06T11:40:22.611Z,23.87
2018-10-06T11:42:51.645Z,24.14
2018-10-06T11:45:20.653Z,23.95
2018-10-06T11:47:50.637Z,24.07
2018-10-06T11:50:20.822Z,24.36
2018-10-06T11:52:50.604Z,23.70
2018-10-06T11:55:20.258Z,24.26
2018-10-06T11:57:49.337Z,23.65
2018-10-06T12:00:19.221Z,23.95
2018-10-06T12:02:48.160Z,23.77
2018-10-06T12:05:17.934Z,23.93
2018-10-06T12:07:47.028Z,23.89
2018-10-06T12:10:16.088Z,23.47
2018-10-06T12:12:46.005Z,22.68
2018-10-06T12:15:15.053Z,22.67
2018-10-06T12:17:44.184Z,22.65
2018-10-06T12:20:14.170Z,22.65
2018-10-06T12:22:43.223Z,22.72
2018-10-06T12:25:12.233Z,23.21
2018-10-06T12:27:41.369Z,22.91
2018-10-06T12:30:10.366Z,23.02
2018-10-06T12:32:39.476Z,23.08
2018-10-06T12:35:08.533Z,23.30
2018-10-06T12:37:39.403Z,23.61
2018-10-06T12:40:08.474Z,23.16
2018-10-06T12:42:39.664Z,23.07
2018-10-06T12:45:08.745Z,22.70
2018-10-06T12:47:38.095Z,22.92
2018-10-06T12:50:07.238Z,23.01
2018-10-06T12:52:36.263Z,22.96
2018-10-06T12:55:06.804Z,22.79
2018-10-06T12:57:36.281Z,22.77
2018-10-06T13:00:05.448Z,22.73
2018-10-06T13:02:35.098Z,22.94
2018-10-06T13:05:04.202Z,22.50
2018-10-06T13:07:34.376Z,22.58
2018-10-06T13:10:03.436Z,22.35
2018-10-06T13:12:33.163Z,22.38
2018-10-06T13:15:02.380Z,22.46
2018-10-06T13:17:33.541Z,22.49
2018-10-06T13:20:02.623Z,22.58
2018-10-06T13:22:31.658Z,22.67
2018-10-06T13:25:02.011Z,22.76
2018-10-06T13:27:31.030Z,23.10
2018-10-06T13:30:00.064Z,23.58
2018-10-06T13:32:29.384Z,23.65
2018-10-06T13:34:59.539Z,23.80
2018-10-06T13:37:28.840Z,23.95
2018-10-06T13:39:57.867Z,23.99
2018-10-06T13:42:27.001Z,24.07
2018-10-06T13:44:56.017Z,24.13
2018-10-06T13:47:25.150Z,24.08
2018-10-06T13:49:54.370Z,23.99
2018-10-06T13:52:23.658Z,23.98
2018-10-06T13:54:52.595Z,23.95
2018-10-06T13:57:21.751Z,23.93
2018-10-06T13:59:50.811Z,23.57
2018-10-06T14:02:19.781Z,23.24
2018-10-06T14:04:48.843Z,22.89
2018-10-06T14:07:17.848Z,22.55
2018-10-06T14:09:46.852Z,22.14
2018-10-06T14:12:16.002Z,21.91
2018-10-06T14:14:45.072Z,22.02
2018-10-06T14:17:14.374Z,22.23
2018-10-06T14:19:44.636Z,22.28
2018-10-06T14:22:13.610Z,22.33
2018-10-06T14:24:42.946Z,22.43
2018-10-06T14:27:12.107Z,22.45
2018-10-06T14:29:41.165Z,22.25
2018-10-06T14:32:10.225Z,21.89
2018-10-06T14:34:39.270Z,21.95
2018-10-06T14:37:08.338Z,21.69
2018-10-06T14:39:37.455Z,21.44
2018-10-06T14:42:06.462Z,21.56
2018-10-06T14:44:35.512Z,20.86
2018-10-06T14:47:07.062Z,20.37
2018-10-06T14:49:36.218Z,20.68
2018-10-06T14:52:05.284Z,20.61
2018-10-06T14:54:34.298Z,20.80
2018-10-06T14:57:03.321Z,20.83
2018-10-06T14:59:32.349Z,20.44
2018-10-06T15:02:02.158Z,20.30
2018-10-06T15:04:31.232Z,20.01
2018-10-06T15:07:00.353Z,19.89
2018-10-06T15:09:29.449Z,19.58
2018-10-06T15:11:58.638Z,19.50
2018-10-06T15:14:27.746Z,19.31
2018-10-06T15:16:56.874Z,19.31
2018-10-06T15:19:25.980Z,19.49
2018-10-06T15:21:54.976Z,18.83
2018-10-06T15:24:24.099Z,18.77
2018-10-06T15:26:53.141Z,19.18
2018-10-06T15:29:22.205Z,19.32
2018-10-06T15:31:51.229Z,19.30
2018-10-06T15:34:20.611Z,19.23
2018-10-06T15:36:49.810Z,19.01
2018-10-06T15:39:18.914Z,18.86
2018-10-06T15:41:47.919Z,18.82
2018-10-06T15:44:17.107Z,18.83
2018-10-06T15:46:46.135Z,18.70
2018-10-06T15:49:15.122Z,18.67
2018-10-06T15:51:44.430Z,18.64
2018-10-06T15:54:14.596Z,18.55
2018-10-06T15:56:43.844Z,18.50
2018-10-06T15:59:12.995Z,18.53
2018-10-06T16:01:42.162Z,18.48
2018-10-06T16:04:11.175Z,18.43
2018-10-06T16:06:40.391Z,18.30
2018-10-06T16:09:09.461Z,18.32
2018-10-06T16:11:38.651Z,18.39
2018-10-06T16:14:08.548Z,18.47
2018-10-06T16:16:37.642Z,18.11
2018-10-06T16:19:07.016Z,18.06
2018-10-06T16:21:36.422Z,17.96
2018-10-06T16:24:05.769Z,17.78
2018-10-06T16:26:34.921Z,17.80
2018-10-06T16:29:03.977Z,17.78
2018-10-06T16:31:32.983Z,17.57
2018-10-06T16:34:03.433Z,17.46
2018-10-06T16:36:32.650Z,17.50
2018-10-06T16:39:01.843Z,17.42
2018-10-06T16:41:30.870Z,17.30
2018-10-06T16:43:59.992Z,17.12
2018-10-06T16:46:29.291Z,17.22
2018-10-06T16:48:58.346Z,17.11
2018-10-06T16:51:27.448Z,17.08
2018-10-06T16:54:00.231Z,17.03
2018-10-06T16:56:29.345Z,16.95
2018-10-06T16:58:58.459Z,16.85
2018-10-06T17:01:27.923Z,16.87
2018-10-06T17:03:57.935Z,16.83
2018-10-06T17:06:27.700Z,16.85
2018-10-06T17:08:56.957Z,16.72
2018-10-06T17:11:26.191Z,16.92
2018-10-06T17:13:55.221Z,17.02
2018-10-06T17:16:24.988Z,17.01
2018-10-06T17:18:54.057Z,16.93
2018-10-06T17:21:23.727Z,16.98
2018-10-06T17:23:52.766Z,16.92
2018-10-06T17:26:22.186Z,16.90
2018-10-06T17:28:51.323Z,16.66
2018-10-06T17:31:20.569Z,16.47
2018-10-06T17:33:50.088Z,16.33
2018-10-06T17:36:19.346Z,16.19
2018-10-06T17:38:48.824Z,16.12
2018-10-06T17:41:18.254Z,15.98
2018-10-06T17:43:47.863Z,16.15
2018-10-06T17:46:17.331Z,15.93
2018-10-06T17:48:46.724Z,15.90
2018-10-06T17:51:16.015Z,16.08
2018-10-06T17:53:45.633Z,16.20
2018-10-06T17:56:15.646Z,16.08
2018-10-06T17:58:45.232Z,16.01
2018-10-06T18:01:15.879Z,16.01
2018-10-06T18:03:47.055Z,16.12
2018-10-06T18:06:16.438Z,16.15
2018-10-06T18:08:47.864Z,16.14
2018-10-06T18:11:18.008Z,16.13
2018-10-06T18:13:47.550Z,16.15
2018-10-06T18:16:17.098Z,15.97
2018-10-06T18:18:46.682Z,15.90
2018-10-06T18:21:16.251Z,15.92
2018-10-06T18:23:46.399Z,15.78
2018-10-06T18:26:15.888Z,15.68
2018-10-06T18:28:45.524Z,15.68
2018-10-06T18:31:14.945Z,15.84
2018-10-06T18:33:45.088Z,15.72
2018-10-06T18:36:14.717Z,15.59
2018-10-06T18:38:45.919Z,15.48
2018-10-06T18:41:15.331Z,15.33
2018-10-06T18:43:44.846Z,15.39
2018-10-06T18:46:14.677Z,15.42
2018-10-06T18:48:45.254Z,15.44
2018-10-06T18:51:22.266Z,15.42
2018-10-06T18:53:51.668Z,15.44
2018-10-06T18:56:20.902Z,15.46
2018-10-06T18:58:50.985Z,15.46
2018-10-06T19:01:21.111Z,15.50
2018-10-06T19:03:50.871Z,15.58
2018-10-06T19:06:20.023Z,15.56
2018-10-06T19:08:49.707Z,15.62
2018-10-06T19:11:20.178Z,15.65
2018-10-06T19:13:49.435Z,15.65
2018-10-06T19:16:18.675Z,15.64
2018-10-06T19:18:47.927Z,15.49
2018-10-06T19:21:17.141Z,15.45
2018-10-06T19:23:46.524Z,15.46
2018-10-06T19:26:15.610Z,15.44
2018-10-06T19:28:45.909Z,15.49
2018-10-06T19:31:14.972Z,15.54
2018-10-06T19:33:43.973Z,15.51
2018-10-06T19:36:14.203Z,15.51
2018-10-06T19:38:43.382Z,15.55
2018-10-06T19:41:12.597Z,15.05
2018-10-06T19:43:41.780Z,14.95
2018-10-06T19:46:10.951Z,14.95
2018-10-06T19:48:40.037Z,15.06
2018-10-06T19:51:10.351Z,15.10
2018-10-06T19:53:39.591Z,15.06
2018-10-06T19:56:09.616Z,15.05
2018-10-06T19:58:38.750Z,15.04
2018-10-06T20:01:08.027Z,14.97
2018-10-06T20:03:37.294Z,14.93
2018-10-06T20:06:06.315Z,14.97
2018-10-06T20:08:37.622Z,14.80
2018-10-06T20:11:07.371Z,14.83
2018-10-06T20:13:38.190Z,14.88
2018-10-06T20:16:08.602Z,14.93
2018-10-06T20:18:37.893Z,14.79
2018-10-06T20:21:07.695Z,14.71
2018-10-06T20:23:37.696Z,14.72
2018-10-06T20:26:07.223Z,14.76
2018-10-06T20:28:36.388Z,14.69
2018-10-06T20:31:05.430Z,14.66
2018-10-06T20:33:34.676Z,14.62
2018-10-06T20:36:03.743Z,14.65
2018-10-06T20:38:33.837Z,14.76
2018-10-06T20:41:04.581Z,14.69
2018-10-06T20:43:34.560Z,14.55
2018-10-06T20:46:04.593Z,14.52
2018-10-06T20:48:35.110Z,14.57
2018-10-06T20:51:04.175Z,14.56
2018-10-06T20:53:33.899Z,14.48
2018-10-06T20:56:04.069Z,14.56
2018-10-06T20:58:33.260Z,14.49
2018-10-06T21:01:02.410Z,14.46
2018-10-06T21:03:31.782Z,14.59
2018-10-06T21:06:00.904Z,14.59
2018-10-06T21:08:29.981Z,14.49
2018-10-06T21:11:00.126Z,14.50
2018-10-06T21:13:29.204Z,14.45
2018-10-06T21:16:00.104Z,14.31
2018-10-06T21:18:29.136Z,14.39
2018-10-06T21:20:58.323Z,14.46
2018-10-06T21:23:27.955Z,14.43
2018-10-06T21:25:57.060Z,14.45
2018-10-06T21:28:27.271Z,14.38
2018-10-06T21:30:58.039Z,14.25
2018-10-06T21:33:27.832Z,14.15
2018-10-06T21:35:57.226Z,14.16
2018-10-06T21:38:26.457Z,14.18
2018-10-06T21:40:55.532Z,14.29
2018-10-06T21:43:24.557Z,14.18
2018-10-06T21:45:53.736Z,14.23
2018-10-06T21:48:23.048Z,14.24
2018-10-06T21:50:52.658Z,14.13
2018-10-06T21:53:21.744Z,14.05
2018-10-06T21:55:50.971Z,13.94
2018-10-06T21:58:20.224Z,14.03
2018-10-06T22:00:54.744Z,13.88
2018-10-06T22:03:23.852Z,13.95
2018-10-06T22:05:53.405Z,13.97
2018-10-06T22:08:22.547Z,14.05
2018-10-06T22:10:52.202Z,14.05
2018-10-06T22:13:22.163Z,14.00
2018-10-06T22:15:51.161Z,13.98
2018-10-06T22:18:20.278Z,13.90
2018-10-06T22:20:49.358Z,13.95
2018-10-06T22:23:18.428Z,14.02
2018-10-06T22:25:47.530Z,13.98
2018-10-06T22:28:16.893Z,13.93
2018-10-06T22:30:45.916Z,13.89
2018-10-06T22:33:14.970Z,13.89
2018-10-06T22:35:44.005Z,13.84
2018-10-06T22:38:12.984Z,13.72
2018-10-06T22:40:42.049Z,13.66
2018-10-06T22:43:11.157Z,13.70
2018-10-06T22:45:40.310Z,13.70
2018-10-06T22:48:09.271Z,13.72
2018-10-06T22:50:38.461Z,13.78
2018-10-06T22:53:07.807Z,13.75
2018-10-06T22:55:36.771Z,13.68
2018-10-06T22:58:06.751Z,13.47
2018-10-06T23:00:35.939Z,13.42
2018-10-06T23:03:05.013Z,13.48
2018-10-06T23:05:34.243Z,13.51
2018-10-06T23:08:03.379Z,13.51
2018-10-06T23:10:32.461Z,13.51
2018-10-06T23:13:01.568Z,13.47
2018-10-06T23:15:30.609Z,13.46
2018-10-06T23:18:01.645Z,13.49
2018-10-06T23:20:30.654Z,13.56
2018-10-06T23:22:59.932Z,13.66
2018-10-06T23:25:28.974Z,13.75
2018-10-06T23:27:58.088Z,13.79
2018-10-06T23:30:27.220Z,13.65
2018-10-06T23:32:56.348Z,13.59
2018-10-06T23:35:25.817Z,13.69
2018-10-06T23:37:54.997Z,13.68
2018-10-06T23:40:24.185Z,13.70
2018-10-06T23:42:53.239Z,13.79
2018-10-06T23:45:22.288Z,13.84
2018-10-06T23:47:51.343Z,13.80
2018-10-06T23:50:22.429Z,13.81
2018-10-06T23:52:51.485Z,13.71
2018-10-06T23:55:20.574Z,13.51
2018-10-06T23:57:51.099Z,13.47
